»·PEaware :: PSV40F KGJT-KEGE

PSV40F :: KGJT-KEGE

FLIGHT INFORMATION

Flight Status: Arrived
Operator:
Power Set Virtual (website)
More flights by this operator :: More flights under this callsign
Pilot: Pratham R. (19019)
Aircraft: SOCATA TBM-900
(TBM9)
More flights by this aircraft type
Origin: KGJT Grand Junction Regl
United States
Destination: KEGE Eagle Co Regl
United States
More flights between these airports :: More routes between these airports
Route: +JNC7 SQUAT V8 RLG
File this flight plan on PilotEdge
Remarks: RMK / SIMBRIEF
Altitude:
(Current/Filed)
17,000ft
Speed:
(Current/Filed)
289kts
Departed: 08-Apr-20 06:41 PM
Arrived: 08-Apr-20 07:28 PM
Distance/Time
Traveled:
81nm/0:47
Distance/Time
To Go:
Arrived

Flight Plot

Page will automatically refresh every two minutes.

Flight plan parsing failed; only flown route is shown


Map Options




Map Legend


Flown Route
Filed Route
Departure Airport
Arrival Airport
Navaid (VOR, NDB)
Fix

Horizontal Profiles

Position Reports

Time Latitude Longitude Heading Altitude Ground
Speed
08-Apr-20 18:23 39.120567 -108.521998 40 4838ft 0kts
08-Apr-20 18:24 39.120567 -108.521998 40 4838ft 0kts
08-Apr-20 18:25 39.120601 -108.521961 40 4839ft 0kts
08-Apr-20 18:26 39.120601 -108.521961 40 4839ft 0kts
08-Apr-20 18:27 39.120601 -108.521961 40 4839ft 0kts
08-Apr-20 18:28 39.120601 -108.521961 40 4839ft 0kts
08-Apr-20 18:29 39.120601 -108.521961 40 4839ft 0kts
08-Apr-20 18:30 39.120601 -108.521961 40 4839ft 0kts
08-Apr-20 18:31 39.120601 -108.521961 40 4839ft 0kts
08-Apr-20 18:32 39.120601 -108.521961 40 4839ft 0kts
08-Apr-20 18:33 39.120601 -108.521961 40 4839ft 0kts
08-Apr-20 18:34 39.120601 -108.521961 40 4839ft 0kts
08-Apr-20 18:35 39.120601 -108.521961 40 4839ft 0kts
08-Apr-20 18:36 39.120227 -108.519974 127 4843ft 18kts
08-Apr-20 18:37 39.118237 -108.516330 124 4846ft 0kts
08-Apr-20 18:38 39.118354 -108.514754 50 4849ft 7kts
08-Apr-20 18:39 39.118836 -108.514947 306 4850ft 11kts
08-Apr-20 18:40 39.135581 -108.547728 301 5765ft 142kts
08-Apr-20 18:41 39.130994 -108.592600 244 7857ft 141kts
08-Apr-20 18:42 39.113492 -108.641030 248 9421ft 165kts
08-Apr-20 18:43 39.093247 -108.697753 245 10767ft 182kts
08-Apr-20 18:44 39.071693 -108.758466 246 12479ft 187kts
08-Apr-20 18:45 39.090000 -108.798810 24 14029ft 209kts
08-Apr-20 18:46 39.101567 -108.716589 89 14141ft 260kts
08-Apr-20 18:47 39.128913 -108.636160 57 15383ft 243kts
08-Apr-20 18:48 39.160397 -108.564901 57 16155ft 249kts
08-Apr-20 18:49 39.197341 -108.481080 56 16966ft 254kts
08-Apr-20 18:50 39.234055 -108.397576 57 17017ft 275kts
08-Apr-20 18:51 39.272213 -108.310516 57 17009ft 282kts
08-Apr-20 18:52 39.311105 -108.221528 57 17009ft 283kts
08-Apr-20 18:53 39.350015 -108.132206 57 17022ft 283kts
08-Apr-20 18:54 39.388996 -108.042441 57 17037ft 284kts
08-Apr-20 18:55 39.427750 -107.952975 57 17045ft 284kts
08-Apr-20 18:56 39.466546 -107.863169 57 17046ft 284kts
08-Apr-20 18:57 39.505271 -107.773257 57 17046ft 284kts
08-Apr-20 18:58 39.542529 -107.682210 61 17047ft 285kts
08-Apr-20 18:59 39.577635 -107.589403 60 17047ft 285kts
08-Apr-20 19:00 39.612774 -107.496272 60 17050ft 285kts
08-Apr-20 19:01 39.647576 -107.403734 60 17075ft 285kts
08-Apr-20 19:02 39.682670 -107.311270 60 17096ft 284kts
08-Apr-20 19:03 39.717718 -107.217873 61 17108ft 285kts
08-Apr-20 19:04 39.752213 -107.124758 61 17109ft 285kts
08-Apr-20 19:05 39.786755 -107.031202 61 17109ft 285kts
08-Apr-20 19:06 39.821297 -106.937328 60 17109ft 286kts
08-Apr-20 19:07 39.857063 -106.843858 48 17099ft 283kts
08-Apr-20 19:08 39.904290 -106.759619 48 16643ft 297kts
08-Apr-20 19:09 39.953873 -106.672443 48 15847ft 295kts
08-Apr-20 19:10 40.003221 -106.586737 48 15042ft 290kts
08-Apr-20 19:11 40.051947 -106.503234 48 14240ft 286kts
08-Apr-20 19:12 40.099088 -106.422809 48 14152ft 268kts
08-Apr-20 19:13 40.088212 -106.344992 172 14170ft 263kts
08-Apr-20 19:14 40.036109 -106.393554 232 14169ft 233kts
08-Apr-20 19:15 39.988358 -106.448619 202 14158ft 239kts
08-Apr-20 19:16 39.924737 -106.475364 202 14139ft 238kts
08-Apr-20 19:17 39.862935 -106.501377 202 14123ft 227kts
08-Apr-20 19:18 39.803644 -106.526302 203 14119ft 220kts
08-Apr-20 19:19 39.743305 -106.551639 202 13592ft 234kts
08-Apr-20 19:20 39.687853 -106.584653 256 12971ft 192kts
08-Apr-20 19:21 39.682521 -106.648594 260 11675ft 165kts
08-Apr-20 19:22 39.673649 -106.704569 258 10379ft 150kts
08-Apr-20 19:23 39.665717 -106.758295 258 9417ft 153kts
08-Apr-20 19:24 39.657798 -106.808789 257 8402ft 133kts
08-Apr-20 19:25 39.649830 -106.852010 259 7627ft 99kts
08-Apr-20 19:26 39.646125 -106.885139 259 6928ft 89kts
08-Apr-20 19:27 39.642896 -106.914603 261 6548ft 34kts
08-Apr-20 19:28 39.643790 -106.915557 19 6548ft 3kts
08-Apr-20 19:29 39.644663 -106.914319 81 6548ft 7kts
08-Apr-20 19:30 39.644993 -106.911520 50 6548ft 3kts
08-Apr-20 19:31 39.645923 -106.911905 61 6548ft 4kts
08-Apr-20 19:32 39.646034 -106.911511 84 6548ft 0kts
08-Apr-20 19:33 39.646034 -106.911511 84 6548ft 0kts
08-Apr-20 19:34 39.646034 -106.911511 84 6548ft 0kts
08-Apr-20 19:35 39.646034 -106.911511 84 6548ft 0kts

Navigation Log

Ident Type
Flight plan parsing failed, navigation log unavailable